sensor_id;sensor_type;location;lat;lon;timestamp;P1;durP1;ratioP1;P2;durP2;ratioP2
18726;SDS011;9492;51.888;5.186;2022-07-18T00:00:34;8.20;;;5.37;;
18726;SDS011;9492;51.888;5.186;2022-07-18T00:03:00;5.73;;;5.10;;
18726;SDS011;9492;51.888;5.186;2022-07-18T00:05:26;8.63;;;5.50;;
18726;SDS011;9492;51.888;5.186;2022-07-18T00:07:52;7.43;;;5.30;;
18726;SDS011;9492;51.888;5.186;2022-07-18T00:10:18;7.90;;;5.47;;
18726;SDS011;9492;51.888;5.186;2022-07-18T00:12:44;6.90;;;5.47;;
18726;SDS011;9492;51.888;5.186;2022-07-18T00:15:10;7.70;;;5.17;;
18726;SDS011;9492;51.888;5.186;2022-07-18T00:17:37;5.97;;;4.70;;
18726;SDS011;9492;51.888;5.186;2022-07-18T00:20:04;6.77;;;5.10;;
18726;SDS011;9492;51.888;5.186;2022-07-18T00:22:31;9.07;;;5.17;;
18726;SDS011;9492;51.888;5.186;2022-07-18T00:24:57;6.63;;;4.70;;
18726;SDS011;9492;51.888;5.186;2022-07-18T00:27:23;6.50;;;5.30;;
18726;SDS011;9492;51.888;5.186;2022-07-18T00:29:49;5.90;;;4.83;;
18726;SDS011;9492;51.888;5.186;2022-07-18T00:32:15;6.63;;;4.93;;
18726;SDS011;9492;51.888;5.186;2022-07-18T00:34:41;8.20;;;5.03;;
18726;SDS011;9492;51.888;5.186;2022-07-18T00:37:07;5.40;;;4.90;;
18726;SDS011;9492;51.888;5.186;2022-07-18T00:39:33;5.50;;;5.00;;
18726;SDS011;9492;51.888;5.186;2022-07-18T00:41:59;5.50;;;5.00;;
18726;SDS011;9492;51.888;5.186;2022-07-18T00:44:26;6.10;;;5.50;;
18726;SDS011;9492;51.888;5.186;2022-07-18T00:46:57;7.13;;;5.43;;
18726;SDS011;9492;51.888;5.186;2022-07-18T00:49:23;8.17;;;5.50;;
18726;SDS011;9492;51.888;5.186;2022-07-18T00:51:49;8.47;;;5.87;;
18726;SDS011;9492;51.888;5.186;2022-07-18T00:54:15;7.57;;;6.20;;
18726;SDS011;9492;51.888;5.186;2022-07-18T00:56:42;8.83;;;5.83;;
18726;SDS011;9492;51.888;5.186;2022-07-18T00:59:09;8.53;;;5.63;;
18726;SDS011;9492;51.888;5.186;2022-07-18T01:01:35;8.77;;;5.87;;
18726;SDS011;9492;51.888;5.186;2022-07-18T01:04:08;7.87;;;5.90;;
18726;SDS011;9492;51.888;5.186;2022-07-18T01:06:34;6.17;;;5.53;;
18726;SDS011;9492;51.888;5.186;2022-07-18T01:09:00;6.93;;;5.60;;
18726;SDS011;9492;51.888;5.186;2022-07-18T01:11:27;8.50;;;5.80;;
18726;SDS011;9492;51.888;5.186;2022-07-18T01:13:53;7.90;;;5.37;;
18726;SDS011;9492;51.888;5.186;2022-07-18T01:16:20;11.03;;;6.00;;
18726;SDS011;9492;51.888;5.186;2022-07-18T01:18:47;7.80;;;5.90;;
18726;SDS011;9492;51.888;5.186;2022-07-18T01:21:13;6.83;;;6.07;;
18726;SDS011;9492;51.888;5.186;2022-07-18T01:23:40;6.83;;;5.73;;
18726;SDS011;9492;51.888;5.186;2022-07-18T01:26:06;6.93;;;5.30;;
18726;SDS011;9492;51.888;5.186;2022-07-18T01:28:32;6.63;;;5.83;;
18726;SDS011;9492;51.888;5.186;2022-07-18T01:30:58;5.83;;;5.23;;
18726;SDS011;9492;51.888;5.186;2022-07-18T01:33:24;8.80;;;5.73;;
18726;SDS011;9492;51.888;5.186;2022-07-18T01:35:50;6.57;;;5.83;;
18726;SDS011;9492;51.888;5.186;2022-07-18T01:38:16;8.47;;;6.00;;
18726;SDS011;9492;51.888;5.186;2022-07-18T01:40:44;6.90;;;5.70;;
18726;SDS011;9492;51.888;5.186;2022-07-18T01:43:10;8.03;;;6.33;;
18726;SDS011;9492;51.888;5.186;2022-07-18T01:45:36;7.13;;;6.43;;
18726;SDS011;9492;51.888;5.186;2022-07-18T01:48:03;7.87;;;7.10;;
18726;SDS011;9492;51.888;5.186;2022-07-18T01:50:29;7.53;;;6.83;;
18726;SDS011;9492;51.888;5.186;2022-07-18T01:52:55;9.93;;;6.77;;
18726;SDS011;9492;51.888;5.186;2022-07-18T01:55:21;8.07;;;6.80;;
18726;SDS011;9492;51.888;5.186;2022-07-18T01:57:47;10.80;;;6.80;;
18726;SDS011;9492;51.888;5.186;2022-07-18T02:00:13;9.70;;;7.67;;
18726;SDS011;9492;51.888;5.186;2022-07-18T02:02:39;9.03;;;7.73;;
18726;SDS011;9492;51.888;5.186;2022-07-18T02:05:06;8.97;;;7.60;;
18726;SDS011;9492;51.888;5.186;2022-07-18T02:07:33;8.10;;;7.30;;
18726;SDS011;9492;51.888;5.186;2022-07-18T02:10:00;8.47;;;7.27;;
18726;SDS011;9492;51.888;5.186;2022-07-18T02:12:27;10.03;;;7.10;;
18726;SDS011;9492;51.888;5.186;2022-07-18T02:14:53;8.17;;;7.17;;
18726;SDS011;9492;51.888;5.186;2022-07-18T02:17:19;11.57;;;7.27;;
18726;SDS011;9492;51.888;5.186;2022-07-18T02:19:45;9.73;;;6.70;;
18726;SDS011;9492;51.888;5.186;2022-07-18T02:22:11;10.10;;;7.23;;
18726;SDS011;9492;51.888;5.186;2022-07-18T02:24:37;7.87;;;6.33;;
18726;SDS011;9492;51.888;5.186;2022-07-18T02:27:03;8.33;;;6.53;;
18726;SDS011;9492;51.888;5.186;2022-07-18T02:29:29;7.90;;;6.20;;
18726;SDS011;9492;51.888;5.186;2022-07-18T02:31:55;7.63;;;6.70;;
18726;SDS011;9492;51.888;5.186;2022-07-18T02:34:22;7.20;;;6.27;;
18726;SDS011;9492;51.888;5.186;2022-07-18T02:36:47;7.33;;;6.20;;
18726;SDS011;9492;51.888;5.186;2022-07-18T02:39:15;6.93;;;6.23;;
18726;SDS011;9492;51.888;5.186;2022-07-18T02:41:41;7.27;;;6.40;;
18726;SDS011;9492;51.888;5.186;2022-07-18T02:44:07;8.27;;;6.77;;
18726;SDS011;9492;51.888;5.186;2022-07-18T02:46:33;8.50;;;6.90;;
18726;SDS011;9492;51.888;5.186;2022-07-18T02:49:00;8.20;;;6.30;;
18726;SDS011;9492;51.888;5.186;2022-07-18T02:51:26;7.53;;;6.27;;
18726;SDS011;9492;51.888;5.186;2022-07-18T02:53:53;7.17;;;6.40;;
18726;SDS011;9492;51.888;5.186;2022-07-18T02:56:19;8.20;;;6.33;;
18726;SDS011;9492;51.888;5.186;2022-07-18T02:58:45;8.87;;;6.87;;
18726;SDS011;9492;51.888;5.186;2022-07-18T03:01:11;9.37;;;6.63;;
18726;SDS011;9492;51.888;5.186;2022-07-18T03:03:37;7.23;;;6.47;;
18726;SDS011;9492;51.888;5.186;2022-07-18T03:06:04;9.20;;;6.73;;
18726;SDS011;9492;51.888;5.186;2022-07-18T03:08:30;8.10;;;6.30;;
18726;SDS011;9492;51.888;5.186;2022-07-18T03:10:55;9.73;;;6.67;;
18726;SDS011;9492;51.888;5.186;2022-07-18T03:13:22;8.83;;;6.67;;
18726;SDS011;9492;51.888;5.186;2022-07-18T03:15:48;10.43;;;6.00;;
18726;SDS011;9492;51.888;5.186;2022-07-18T03:18:13;9.27;;;6.60;;
18726;SDS011;9492;51.888;5.186;2022-07-18T03:20:39;9.53;;;6.83;;
18726;SDS011;9492;51.888;5.186;2022-07-18T03:23:06;8.43;;;6.40;;
18726;SDS011;9492;51.888;5.186;2022-07-18T03:25:32;7.90;;;6.63;;
18726;SDS011;9492;51.888;5.186;2022-07-18T03:27:58;8.97;;;6.30;;
18726;SDS011;9492;51.888;5.186;2022-07-18T03:30:25;11.37;;;6.30;;
18726;SDS011;9492;51.888;5.186;2022-07-18T03:32:51;7.83;;;6.27;;
18726;SDS011;9492;51.888;5.186;2022-07-18T03:35:17;10.63;;;6.73;;
18726;SDS011;9492;51.888;5.186;2022-07-18T03:37:43;8.43;;;6.20;;
18726;SDS011;9492;51.888;5.186;2022-07-18T03:40:09;8.73;;;6.13;;
18726;SDS011;9492;51.888;5.186;2022-07-18T03:42:38;9.03;;;6.43;;
18726;SDS011;9492;51.888;5.186;2022-07-18T03:45:05;6.67;;;5.50;;
18726;SDS011;9492;51.888;5.186;2022-07-18T03:47:31;9.03;;;6.67;;
18726;SDS011;9492;51.888;5.186;2022-07-18T03:49:57;9.73;;;6.30;;
18726;SDS011;9492;51.888;5.186;2022-07-18T03:52:23;8.40;;;5.37;;
18726;SDS011;9492;51.888;5.186;2022-07-18T03:54:49;7.80;;;6.37;;
18726;SDS011;9492;51.888;5.186;2022-07-18T03:57:15;8.83;;;6.60;;
18726;SDS011;9492;51.888;5.186;2022-07-18T03:59:41;12.00;;;6.53;;
18726;SDS011;9492;51.888;5.186;2022-07-18T04:02:07;7.13;;;6.10;;
18726;SDS011;9492;51.888;5.186;2022-07-18T04:04:33;8.47;;;6.20;;
18726;SDS011;9492;51.888;5.186;2022-07-18T04:06:59;7.47;;;6.13;;
18726;SDS011;9492;51.888;5.186;2022-07-18T04:09:28;8.70;;;6.57;;
18726;SDS011;9492;51.888;5.186;2022-07-18T04:11:54;11.83;;;6.53;;
18726;SDS011;9492;51.888;5.186;2022-07-18T04:14:20;8.50;;;6.50;;
18726;SDS011;9492;51.888;5.186;2022-07-18T04:16:47;8.10;;;6.47;;
18726;SDS011;9492;51.888;5.186;2022-07-18T04:19:13;12.80;;;6.67;;
18726;SDS011;9492;51.888;5.186;2022-07-18T04:21:39;10.23;;;6.80;;
18726;SDS011;9492;51.888;5.186;2022-07-18T04:24:05;12.00;;;7.27;;
18726;SDS011;9492;51.888;5.186;2022-07-18T04:26:31;10.53;;;6.67;;
18726;SDS011;9492;51.888;5.186;2022-07-18T04:28:57;11.00;;;7.00;;
18726;SDS011;9492;51.888;5.186;2022-07-18T04:31:23;7.97;;;6.80;;
18726;SDS011;9492;51.888;5.186;2022-07-18T04:33:49;9.17;;;6.83;;
18726;SDS011;9492;51.888;5.186;2022-07-18T04:36:15;10.67;;;7.60;;
18726;SDS011;9492;51.888;5.186;2022-07-18T04:38:43;10.33;;;7.40;;
18726;SDS011;9492;51.888;5.186;2022-07-18T04:41:09;11.63;;;7.67;;
18726;SDS011;9492;51.888;5.186;2022-07-18T04:43:35;10.13;;;7.20;;
18726;SDS011;9492;51.888;5.186;2022-07-18T04:46:01;8.53;;;6.37;;
18726;SDS011;9492;51.888;5.186;2022-07-18T04:48:27;8.90;;;6.93;;
18726;SDS011;9492;51.888;5.186;2022-07-18T04:50:53;11.10;;;6.83;;
18726;SDS011;9492;51.888;5.186;2022-07-18T04:53:19;9.87;;;7.47;;
18726;SDS011;9492;51.888;5.186;2022-07-18T04:55:45;10.03;;;6.67;;
18726;SDS011;9492;51.888;5.186;2022-07-18T04:58:11;10.43;;;7.83;;
18726;SDS011;9492;51.888;5.186;2022-07-18T05:00:37;8.73;;;7.27;;
18726;SDS011;9492;51.888;5.186;2022-07-18T05:03:03;10.47;;;7.70;;
18726;SDS011;9492;51.888;5.186;2022-07-18T05:05:29;9.63;;;7.17;;
18726;SDS011;9492;51.888;5.186;2022-07-18T05:07:58;10.07;;;7.50;;
18726;SDS011;9492;51.888;5.186;2022-07-18T05:10:24;9.50;;;7.40;;
18726;SDS011;9492;51.888;5.186;2022-07-18T05:12:51;14.03;;;7.57;;
18726;SDS011;9492;51.888;5.186;2022-07-18T05:15:18;9.90;;;7.47;;
18726;SDS011;9492;51.888;5.186;2022-07-18T05:17:44;9.50;;;7.30;;
18726;SDS011;9492;51.888;5.186;2022-07-18T05:20:12;7.93;;;6.87;;
18726;SDS011;9492;51.888;5.186;2022-07-18T05:22:38;8.87;;;7.00;;
18726;SDS011;9492;51.888;5.186;2022-07-18T05:25:05;9.23;;;7.10;;
18726;SDS011;9492;51.888;5.186;2022-07-18T05:27:31;8.63;;;6.70;;
18726;SDS011;9492;51.888;5.186;2022-07-18T05:29:57;9.33;;;6.87;;
18726;SDS011;9492;51.888;5.186;2022-07-18T05:32:24;11.10;;;6.63;;
18726;SDS011;9492;51.888;5.186;2022-07-18T05:34:50;9.87;;;7.33;;
18726;SDS011;9492;51.888;5.186;2022-07-18T05:37:16;12.83;;;7.30;;
18726;SDS011;9492;51.888;5.186;2022-07-18T05:39:42;8.90;;;7.00;;
18726;SDS011;9492;51.888;5.186;2022-07-18T05:42:08;9.80;;;6.50;;
18726;SDS011;9492;51.888;5.186;2022-07-18T05:44:34;8.87;;;6.53;;
18726;SDS011;9492;51.888;5.186;2022-07-18T05:47:03;9.40;;;7.00;;
18726;SDS011;9492;51.888;5.186;2022-07-18T05:49:29;9.80;;;6.47;;
18726;SDS011;9492;51.888;5.186;2022-07-18T05:51:58;8.33;;;6.07;;
18726;SDS011;9492;51.888;5.186;2022-07-18T05:54:24;8.40;;;7.50;;
18726;SDS011;9492;51.888;5.186;2022-07-18T05:56:50;7.77;;;6.77;;
18726;SDS011;9492;51.888;5.186;2022-07-18T05:59:17;10.73;;;6.30;;
18726;SDS011;9492;51.888;5.186;2022-07-18T06:01:43;10.20;;;6.80;;
18726;SDS011;9492;51.888;5.186;2022-07-18T06:04:09;8.83;;;7.17;;
18726;SDS011;9492;51.888;5.186;2022-07-18T06:06:35;9.33;;;6.73;;
18726;SDS011;9492;51.888;5.186;2022-07-18T06:09:02;7.77;;;5.90;;
18726;SDS011;9492;51.888;5.186;2022-07-18T06:11:28;9.93;;;6.57;;
18726;SDS011;9492;51.888;5.186;2022-07-18T06:13:54;7.87;;;6.53;;
18726;SDS011;9492;51.888;5.186;2022-07-18T06:16:20;7.80;;;7.00;;
18726;SDS011;9492;51.888;5.186;2022-07-18T06:18:46;7.73;;;7.00;;
18726;SDS011;9492;51.888;5.186;2022-07-18T06:21:12;9.73;;;7.07;;
18726;SDS011;9492;51.888;5.186;2022-07-18T06:23:38;8.60;;;7.07;;
18726;SDS011;9492;51.888;5.186;2022-07-18T06:26:05;8.80;;;6.87;;
18726;SDS011;9492;51.888;5.186;2022-07-18T06:28:31;9.70;;;6.80;;
18726;SDS011;9492;51.888;5.186;2022-07-18T06:30:57;11.77;;;6.67;;
18726;SDS011;9492;51.888;5.186;2022-07-18T06:33:23;7.93;;;6.00;;
18726;SDS011;9492;51.888;5.186;2022-07-18T06:35:49;8.33;;;6.50;;
18726;SDS011;9492;51.888;5.186;2022-07-18T06:38:15;9.57;;;7.10;;
18726;SDS011;9492;51.888;5.186;2022-07-18T06:40:42;8.07;;;7.27;;
18726;SDS011;9492;51.888;5.186;2022-07-18T06:43:08;8.57;;;6.73;;
18726;SDS011;9492;51.888;5.186;2022-07-18T06:45:34;12.23;;;7.63;;
18726;SDS011;9492;51.888;5.186;2022-07-18T06:48:00;8.60;;;6.75;;
18726;SDS011;9492;51.888;5.186;2022-07-18T06:50:26;9.38;;;6.50;;
18726;SDS011;9492;51.888;5.186;2022-07-18T06:52:53;11.82;;;6.32;;
18726;SDS011;9492;51.888;5.186;2022-07-18T06:55:19;10.75;;;7.18;;
18726;SDS011;9492;51.888;5.186;2022-07-18T06:57:45;10.25;;;7.10;;
18726;SDS011;9492;51.888;5.186;2022-07-18T07:00:12;8.43;;;7.10;;
18726;SDS011;9492;51.888;5.186;2022-07-18T07:02:45;8.68;;;6.43;;
18726;SDS011;9492;51.888;5.186;2022-07-18T07:05:11;10.30;;;7.40;;
18726;SDS011;9492;51.888;5.186;2022-07-18T07:07:38;7.95;;;6.78;;
18726;SDS011;9492;51.888;5.186;2022-07-18T07:10:04;10.02;;;6.95;;
18726;SDS011;9492;51.888;5.186;2022-07-18T07:12:37;8.52;;;6.22;;
18726;SDS011;9492;51.888;5.186;2022-07-18T07:15:03;7.70;;;5.68;;
18726;SDS011;9492;51.888;5.186;2022-07-18T07:17:29;9.27;;;6.63;;
18726;SDS011;9492;51.888;5.186;2022-07-18T07:19:57;11.05;;;6.90;;
18726;SDS011;9492;51.888;5.186;2022-07-18T07:22:23;7.88;;;6.07;;
18726;SDS011;9492;51.888;5.186;2022-07-18T07:24:49;7.95;;;6.25;;
18726;SDS011;9492;51.888;5.186;2022-07-18T07:27:16;12.65;;;7.18;;
18726;SDS011;9492;51.888;5.186;2022-07-18T07:29:42;8.52;;;6.93;;
18726;SDS011;9492;51.888;5.186;2022-07-18T07:32:08;9.75;;;7.63;;
18726;SDS011;9492;51.888;5.186;2022-07-18T07:34:33;9.00;;;7.10;;
18726;SDS011;9492;51.888;5.186;2022-07-18T07:36:59;9.50;;;6.95;;
18726;SDS011;9492;51.888;5.186;2022-07-18T07:39:26;9.93;;;7.18;;
18726;SDS011;9492;51.888;5.186;2022-07-18T07:41:52;6.57;;;5.85;;
18726;SDS011;9492;51.888;5.186;2022-07-18T07:44:18;8.93;;;6.47;;
18726;SDS011;9492;51.888;5.186;2022-07-18T07:46:47;9.50;;;6.63;;
18726;SDS011;9492;51.888;5.186;2022-07-18T07:49:14;10.13;;;6.53;;
18726;SDS011;9492;51.888;5.186;2022-07-18T07:51:40;6.53;;;5.75;;
18726;SDS011;9492;51.888;5.186;2022-07-18T07:54:07;11.15;;;6.60;;
18726;SDS011;9492;51.888;5.186;2022-07-18T07:56:33;6.70;;;5.57;;
18726;SDS011;9492;51.888;5.186;2022-07-18T07:58:59;9.50;;;6.50;;
18726;SDS011;9492;51.888;5.186;2022-07-18T08:01:26;11.32;;;6.10;;
18726;SDS011;9492;51.888;5.186;2022-07-18T08:03:52;9.15;;;6.00;;
18726;SDS011;9492;51.888;5.186;2022-07-18T08:06:18;9.02;;;6.40;;
18726;SDS011;9492;51.888;5.186;2022-07-18T08:08:47;8.10;;;5.70;;
18726;SDS011;9492;51.888;5.186;2022-07-18T08:11:18;9.18;;;6.38;;
18726;SDS011;9492;51.888;5.186;2022-07-18T08:13:47;10.75;;;6.72;;
18726;SDS011;9492;51.888;5.186;2022-07-18T08:16:15;7.65;;;5.82;;
18726;SDS011;9492;51.888;5.186;2022-07-18T08:18:52;8.40;;;4.75;;
18726;SDS011;9492;51.888;5.186;2022-07-18T08:21:24;10.13;;;6.38;;
18726;SDS011;9492;51.888;5.186;2022-07-18T08:23:52;7.75;;;5.70;;
18726;SDS011;9492;51.888;5.186;2022-07-18T08:26:21;9.18;;;5.68;;
18726;SDS011;9492;51.888;5.186;2022-07-18T08:28:52;9.07;;;5.13;;
18726;SDS011;9492;51.888;5.186;2022-07-18T08:31:18;6.38;;;4.45;;
18726;SDS011;9492;51.888;5.186;2022-07-18T08:33:52;7.82;;;4.25;;
18726;SDS011;9492;51.888;5.186;2022-07-18T08:36:18;8.25;;;4.68;;
18726;SDS011;9492;51.888;5.186;2022-07-18T08:38:48;5.38;;;3.95;;
18726;SDS011;9492;51.888;5.186;2022-07-18T08:41:16;7.35;;;4.47;;
18726;SDS011;9492;51.888;5.186;2022-07-18T08:43:56;8.45;;;4.07;;
18726;SDS011;9492;51.888;5.186;2022-07-18T08:46:33;7.30;;;4.53;;
18726;SDS011;9492;51.888;5.186;2022-07-18T08:49:03;6.78;;;4.38;;
18726;SDS011;9492;51.888;5.186;2022-07-18T08:51:30;6.80;;;4.70;;
18726;SDS011;9492;51.888;5.186;2022-07-18T08:53:56;6.68;;;4.68;;
18726;SDS011;9492;51.888;5.186;2022-07-18T08:56:22;7.47;;;4.38;;
18726;SDS011;9492;51.888;5.186;2022-07-18T08:58:48;7.13;;;4.22;;
18726;SDS011;9492;51.888;5.186;2022-07-18T09:01:14;6.78;;;4.05;;
18726;SDS011;9492;51.888;5.186;2022-07-18T09:03:43;9.35;;;4.47;;
18726;SDS011;9492;51.888;5.186;2022-07-18T09:06:40;6.00;;;3.38;;
18726;SDS011;9492;51.888;5.186;2022-07-18T09:09:13;5.10;;;3.15;;
18726;SDS011;9492;51.888;5.186;2022-07-18T09:11:56;6.72;;;3.53;;
18726;SDS011;9492;51.888;5.186;2022-07-18T09:17:02;7.10;;;4.03;;
18726;SDS011;9492;51.888;5.186;2022-07-18T09:19:28;6.05;;;3.88;;
18726;SDS011;9492;51.888;5.186;2022-07-18T09:22:13;5.35;;;3.95;;
18726;SDS011;9492;51.888;5.186;2022-07-18T09:24:58;5.20;;;3.88;;
18726;SDS011;9492;51.888;5.186;2022-07-18T09:32:48;7.22;;;3.70;;
18726;SDS011;9492;51.888;5.186;2022-07-18T09:35:17;3.38;;;3.05;;
18726;SDS011;9492;51.888;5.186;2022-07-18T09:37:56;5.88;;;3.50;;
18726;SDS011;9492;51.888;5.186;2022-07-18T09:40:31;7.03;;;3.28;;
18726;SDS011;9492;51.888;5.186;2022-07-18T09:42:58;3.83;;;3.53;;
18726;SDS011;9492;51.888;5.186;2022-07-18T09:45:46;6.57;;;3.78;;
18726;SDS011;9492;51.888;5.186;2022-07-18T09:48:23;7.30;;;3.20;;
18726;SDS011;9492;51.888;5.186;2022-07-18T09:50:53;5.35;;;3.13;;
18726;SDS011;9492;51.888;5.186;2022-07-18T09:53:27;4.45;;;3.08;;
18726;SDS011;9492;51.888;5.186;2022-07-18T09:55:56;5.18;;;3.20;;
18726;SDS011;9492;51.888;5.186;2022-07-18T09:58:49;4.43;;;2.85;;
18726;SDS011;9492;51.888;5.186;2022-07-18T10:01:17;3.80;;;3.03;;
18726;SDS011;9492;51.888;5.186;2022-07-18T10:04:12;4.55;;;2.65;;
18726;SDS011;9492;51.888;5.186;2022-07-18T10:06:44;4.35;;;2.60;;
18726;SDS011;9492;51.888;5.186;2022-07-18T10:09:10;4.78;;;2.40;;
18726;SDS011;9492;51.888;5.186;2022-07-18T10:14:26;3.05;;;1.88;;
18726;SDS011;9492;51.888;5.186;2022-07-18T10:16:54;4.70;;;2.35;;
18726;SDS011;9492;51.888;5.186;2022-07-18T10:19:22;4.28;;;2.05;;
18726;SDS011;9492;51.888;5.186;2022-07-18T10:21:52;5.05;;;2.25;;
18726;SDS011;9492;51.888;5.186;2022-07-18T10:24:23;5.47;;;2.22;;
18726;SDS011;9492;51.888;5.186;2022-07-18T10:29:34;4.65;;;2.03;;
18726;SDS011;9492;51.888;5.186;2022-07-18T10:32:04;3.38;;;2.10;;
18726;SDS011;9492;51.888;5.186;2022-07-18T10:34:37;3.03;;;2.17;;
18726;SDS011;9492;51.888;5.186;2022-07-18T10:39:33;2.80;;;2.08;;
18726;SDS011;9492;51.888;5.186;2022-07-18T10:44:37;3.90;;;2.25;;
18726;SDS011;9492;51.888;5.186;2022-07-18T10:47:07;3.65;;;2.20;;
18726;SDS011;9492;51.888;5.186;2022-07-18T11:00:37;3.67;;;1.98;;
18726;SDS011;9492;51.888;5.186;2022-07-18T11:03:13;3.95;;;2.40;;
18726;SDS011;9492;51.888;5.186;2022-07-18T11:05:45;3.45;;;2.13;;
18726;SDS011;9492;51.888;5.186;2022-07-18T11:08:17;3.30;;;2.05;;
18726;SDS011;9492;51.888;5.186;2022-07-18T11:21:33;6.47;;;1.98;;
18726;SDS011;9492;51.888;5.186;2022-07-18T11:24:09;4.63;;;1.90;;
18726;SDS011;9492;51.888;5.186;2022-07-18T11:26:42;3.97;;;1.70;;
18726;SDS011;9492;51.888;5.186;2022-07-18T11:29:09;3.47;;;2.10;;
18726;SDS011;9492;51.888;5.186;2022-07-18T11:31:43;3.53;;;2.10;;
18726;SDS011;9492;51.888;5.186;2022-07-18T11:34:09;4.13;;;2.05;;
18726;SDS011;9492;51.888;5.186;2022-07-18T11:36:43;2.20;;;1.65;;
18726;SDS011;9492;51.888;5.186;2022-07-18T11:39:11;3.95;;;2.35;;
18726;SDS011;9492;51.888;5.186;2022-07-18T11:41:42;3.85;;;2.00;;
18726;SDS011;9492;51.888;5.186;2022-07-18T11:44:17;6.05;;;2.53;;
18726;SDS011;9492;51.888;5.186;2022-07-18T11:46:46;6.80;;;2.13;;
18726;SDS011;9492;51.888;5.186;2022-07-18T11:49:15;5.32;;;2.33;;
18726;SDS011;9492;51.888;5.186;2022-07-18T11:51:42;3.30;;;2.15;;
18726;SDS011;9492;51.888;5.186;2022-07-18T11:54:09;3.65;;;2.10;;
18726;SDS011;9492;51.888;5.186;2022-07-18T11:56:45;20.55;;;2.85;;
18726;SDS011;9492;51.888;5.186;2022-07-18T11:59:14;3.95;;;2.50;;
18726;SDS011;9492;51.888;5.186;2022-07-18T12:01:43;5.57;;;2.72;;
18726;SDS011;9492;51.888;5.186;2022-07-18T12:04:17;4.15;;;2.53;;
18726;SDS011;9492;51.888;5.186;2022-07-18T12:06:43;6.03;;;2.08;;
18726;SDS011;9492;51.888;5.186;2022-07-18T12:09:09;5.15;;;1.88;;
18726;SDS011;9492;51.888;5.186;2022-07-18T12:11:36;3.63;;;2.03;;
18726;SDS011;9492;51.888;5.186;2022-07-18T12:16:39;2.67;;;2.05;;
18726;SDS011;9492;51.888;5.186;2022-07-18T12:21:47;3.00;;;2.10;;
18726;SDS011;9492;51.888;5.186;2022-07-18T12:24:29;4.35;;;2.17;;
18726;SDS011;9492;51.888;5.186;2022-07-18T12:32:29;3.15;;;2.00;;
18726;SDS011;9492;51.888;5.186;2022-07-18T12:34:59;4.03;;;2.58;;
18726;SDS011;9492;51.888;5.186;2022-07-18T12:37:26;3.53;;;2.35;;
18726;SDS011;9492;51.888;5.186;2022-07-18T12:40:00;3.00;;;2.28;;
18726;SDS011;9492;51.888;5.186;2022-07-18T12:42:27;7.07;;;2.72;;
18726;SDS011;9492;51.888;5.186;2022-07-18T12:44:53;2.58;;;2.33;;
18726;SDS011;9492;51.888;5.186;2022-07-18T12:47:19;5.93;;;2.35;;
18726;SDS011;9492;51.888;5.186;2022-07-18T12:49:45;3.22;;;2.58;;
18726;SDS011;9492;51.888;5.186;2022-07-18T12:52:11;3.58;;;2.38;;
18726;SDS011;9492;51.888;5.186;2022-07-18T12:54:37;5.25;;;2.40;;
18726;SDS011;9492;51.888;5.186;2022-07-18T12:57:03;5.63;;;2.70;;
18726;SDS011;9492;51.888;5.186;2022-07-18T12:59:29;3.88;;;2.45;;
18726;SDS011;9492;51.888;5.186;2022-07-18T13:01:55;5.15;;;2.30;;
18726;SDS011;9492;51.888;5.186;2022-07-18T13:04:21;2.88;;;2.50;;
18726;SDS011;9492;51.888;5.186;2022-07-18T13:06:47;3.75;;;2.50;;
18726;SDS011;9492;51.888;5.186;2022-07-18T13:09:13;5.78;;;2.70;;
18726;SDS011;9492;51.888;5.186;2022-07-18T13:11:39;8.02;;;2.83;;
18726;SDS011;9492;51.888;5.186;2022-07-18T13:14:06;2.50;;;2.30;;
18726;SDS011;9492;51.888;5.186;2022-07-18T13:16:32;3.47;;;2.20;;
18726;SDS011;9492;51.888;5.186;2022-07-18T13:18:58;5.93;;;2.70;;
18726;SDS011;9492;51.888;5.186;2022-07-18T13:21:24;4.35;;;2.45;;
18726;SDS011;9492;51.888;5.186;2022-07-18T13:23:50;4.93;;;2.45;;
18726;SDS011;9492;51.888;5.186;2022-07-18T13:26:16;3.13;;;2.28;;
18726;SDS011;9492;51.888;5.186;2022-07-18T13:28:42;5.10;;;2.45;;
18726;SDS011;9492;51.888;5.186;2022-07-18T13:31:08;2.83;;;2.22;;
18726;SDS011;9492;51.888;5.186;2022-07-18T13:33:34;3.65;;;2.10;;
18726;SDS011;9492;51.888;5.186;2022-07-18T13:36:20;4.18;;;2.42;;
18726;SDS011;9492;51.888;5.186;2022-07-18T13:38:54;4.13;;;2.65;;
18726;SDS011;9492;51.888;5.186;2022-07-18T13:41:28;3.83;;;2.00;;
18726;SDS011;9492;51.888;5.186;2022-07-18T13:43:56;6.32;;;2.50;;
18726;SDS011;9492;51.888;5.186;2022-07-18T13:46:34;4.07;;;2.13;;
18726;SDS011;9492;51.888;5.186;2022-07-18T13:49:00;3.33;;;2.30;;
18726;SDS011;9492;51.888;5.186;2022-07-18T13:51:29;4.10;;;2.42;;
18726;SDS011;9492;51.888;5.186;2022-07-18T13:53:57;4.28;;;2.78;;
18726;SDS011;9492;51.888;5.186;2022-07-18T13:56:23;2.40;;;2.15;;
18726;SDS011;9492;51.888;5.186;2022-07-18T13:58:49;3.08;;;2.30;;
18726;SDS011;9492;51.888;5.186;2022-07-18T14:01:21;3.33;;;2.22;;
18726;SDS011;9492;51.888;5.186;2022-07-18T14:03:55;2.67;;;2.30;;
18726;SDS011;9492;51.888;5.186;2022-07-18T14:06:21;4.93;;;2.30;;
18726;SDS011;9492;51.888;5.186;2022-07-18T14:08:50;3.33;;;2.50;;
18726;SDS011;9492;51.888;5.186;2022-07-18T14:11:18;4.68;;;2.30;;
18726;SDS011;9492;51.888;5.186;2022-07-18T14:13:44;3.00;;;2.20;;
18726;SDS011;9492;51.888;5.186;2022-07-18T14:16:15;5.40;;;2.45;;
18726;SDS011;9492;51.888;5.186;2022-07-18T14:18:52;2.13;;;1.83;;
18726;SDS011;9492;51.888;5.186;2022-07-18T14:21:18;6.45;;;2.45;;
18726;SDS011;9492;51.888;5.186;2022-07-18T14:23:47;5.80;;;2.13;;
18726;SDS011;9492;51.888;5.186;2022-07-18T14:26:13;3.17;;;2.25;;
18726;SDS011;9492;51.888;5.186;2022-07-18T14:28:41;3.80;;;2.15;;
18726;SDS011;9492;51.888;5.186;2022-07-18T14:31:24;2.92;;;2.13;;
18726;SDS011;9492;51.888;5.186;2022-07-18T14:33:50;4.20;;;2.40;;
18726;SDS011;9492;51.888;5.186;2022-07-18T14:36:19;4.70;;;2.40;;
18726;SDS011;9492;51.888;5.186;2022-07-18T14:38:54;2.92;;;2.20;;
18726;SDS011;9492;51.888;5.186;2022-07-18T14:41:28;3.63;;;2.13;;
18726;SDS011;9492;51.888;5.186;2022-07-18T14:44:00;3.10;;;2.05;;
18726;SDS011;9492;51.888;5.186;2022-07-18T14:46:29;4.30;;;2.40;;
18726;SDS011;9492;51.888;5.186;2022-07-18T14:48:55;2.70;;;2.10;;
18726;SDS011;9492;51.888;5.186;2022-07-18T14:51:27;3.58;;;2.10;;
18726;SDS011;9492;51.888;5.186;2022-07-18T14:53:56;4.88;;;2.35;;
18726;SDS011;9492;51.888;5.186;2022-07-18T14:56:22;3.10;;;2.50;;
18726;SDS011;9492;51.888;5.186;2022-07-18T14:58:50;3.65;;;1.88;;
18726;SDS011;9492;51.888;5.186;2022-07-18T15:01:16;5.35;;;2.13;;
18726;SDS011;9492;51.888;5.186;2022-07-18T15:03:47;5.32;;;2.50;;
18726;SDS011;9492;51.888;5.186;2022-07-18T15:06:13;3.45;;;2.28;;
18726;SDS011;9492;51.888;5.186;2022-07-18T15:08:39;4.00;;;2.00;;
18726;SDS011;9492;51.888;5.186;2022-07-18T15:11:05;2.30;;;1.80;;
18726;SDS011;9492;51.888;5.186;2022-07-18T15:13:34;5.07;;;2.20;;
18726;SDS011;9492;51.888;5.186;2022-07-18T15:16:00;3.42;;;2.20;;
18726;SDS011;9492;51.888;5.186;2022-07-18T15:18:27;3.28;;;2.20;;
18726;SDS011;9492;51.888;5.186;2022-07-18T15:20:53;3.97;;;2.25;;
18726;SDS011;9492;51.888;5.186;2022-07-18T15:23:21;4.20;;;2.00;;
18726;SDS011;9492;51.888;5.186;2022-07-18T15:25:47;2.22;;;1.80;;
18726;SDS011;9492;51.888;5.186;2022-07-18T15:28:16;2.83;;;2.63;;
18726;SDS011;9492;51.888;5.186;2022-07-18T15:30:44;2.42;;;1.75;;
18726;SDS011;9492;51.888;5.186;2022-07-18T15:33:10;3.47;;;2.33;;
18726;SDS011;9492;51.888;5.186;2022-07-18T15:35:36;3.80;;;2.00;;
18726;SDS011;9492;51.888;5.186;2022-07-18T15:38:02;2.97;;;2.20;;
18726;SDS011;9492;51.888;5.186;2022-07-18T15:40:28;2.42;;;1.90;;
18726;SDS011;9492;51.888;5.186;2022-07-18T15:42:54;2.38;;;2.10;;
18726;SDS011;9492;51.888;5.186;2022-07-18T15:45:20;3.63;;;2.10;;
18726;SDS011;9492;51.888;5.186;2022-07-18T15:47:49;2.70;;;2.20;;
18726;SDS011;9492;51.888;5.186;2022-07-18T15:50:18;2.67;;;2.30;;
18726;SDS011;9492;51.888;5.186;2022-07-18T15:52:48;2.28;;;2.08;;
18726;SDS011;9492;51.888;5.186;2022-07-18T15:55:16;2.97;;;2.17;;